sensor_id;sensor_type;location;lat;lon;timestamp;P1;durP1;ratioP1;P2;durP2;ratioP2
50495;SDS011;38806;51.554;5.704;2022-11-20T00:00:41;33.08;;;18.30;;
50495;SDS011;38806;51.554;5.704;2022-11-20T00:02:41;30.67;;;18.05;;
50495;SDS011;38806;51.554;5.704;2022-11-20T00:04:41;31.35;;;17.77;;
50495;SDS011;38806;51.554;5.704;2022-11-20T00:06:41;32.92;;;15.60;;
50495;SDS011;38806;51.554;5.704;2022-11-20T00:08:42;30.55;;;17.63;;
50495;SDS011;38806;51.554;5.704;2022-11-20T00:10:42;30.77;;;17.63;;
50495;SDS011;38806;51.554;5.704;2022-11-20T00:12:42;31.55;;;16.33;;
50495;SDS011;38806;51.554;5.704;2022-11-20T00:14:42;30.70;;;14.50;;
50495;SDS011;38806;51.554;5.704;2022-11-20T00:16:43;26.88;;;14.00;;
50495;SDS011;38806;51.554;5.704;2022-11-20T00:18:43;29.73;;;15.90;;
50495;SDS011;38806;51.554;5.704;2022-11-20T00:20:43;23.83;;;15.00;;
50495;SDS011;38806;51.554;5.704;2022-11-20T00:22:44;28.50;;;14.27;;
50495;SDS011;38806;51.554;5.704;2022-11-20T00:24:44;28.35;;;16.33;;
50495;SDS011;38806;51.554;5.704;2022-11-20T00:26:44;30.25;;;15.20;;
50495;SDS011;38806;51.554;5.704;2022-11-20T00:28:48;34.53;;;16.92;;
50495;SDS011;38806;51.554;5.704;2022-11-20T00:30:49;33.67;;;16.05;;
50495;SDS011;38806;51.554;5.704;2022-11-20T00:32:49;28.15;;;14.85;;
50495;SDS011;38806;51.554;5.704;2022-11-20T00:34:49;31.83;;;18.33;;
50495;SDS011;38806;51.554;5.704;2022-11-20T00:36:49;26.17;;;14.90;;
50495;SDS011;38806;51.554;5.704;2022-11-20T00:38:53;26.95;;;16.08;;
50495;SDS011;38806;51.554;5.704;2022-11-20T00:40:57;25.60;;;14.50;;
50495;SDS011;38806;51.554;5.704;2022-11-20T00:42:57;32.28;;;16.55;;
50495;SDS011;38806;51.554;5.704;2022-11-20T00:44:58;28.27;;;14.82;;
50495;SDS011;38806;51.554;5.704;2022-11-20T00:46:58;33.00;;;15.85;;
50495;SDS011;38806;51.554;5.704;2022-11-20T00:48:58;33.15;;;17.55;;
50495;SDS011;38806;51.554;5.704;2022-11-20T00:50:58;32.03;;;16.83;;
50495;SDS011;38806;51.554;5.704;2022-11-20T00:52:58;30.85;;;17.40;;
50495;SDS011;38806;51.554;5.704;2022-11-20T00:54:58;32.45;;;15.60;;
50495;SDS011;38806;51.554;5.704;2022-11-20T00:56:59;27.48;;;17.02;;
50495;SDS011;38806;51.554;5.704;2022-11-20T00:58:59;28.33;;;15.10;;
50495;SDS011;38806;51.554;5.704;2022-11-20T01:01:01;28.30;;;15.63;;
50495;SDS011;38806;51.554;5.704;2022-11-20T01:03:02;24.85;;;15.35;;
50495;SDS011;38806;51.554;5.704;2022-11-20T01:05:02;26.45;;;15.40;;
50495;SDS011;38806;51.554;5.704;2022-11-20T01:07:02;30.05;;;16.10;;
50495;SDS011;38806;51.554;5.704;2022-11-20T01:09:06;25.85;;;15.15;;
50495;SDS011;38806;51.554;5.704;2022-11-20T01:11:08;29.25;;;15.65;;
50495;SDS011;38806;51.554;5.704;2022-11-20T01:13:09;25.65;;;13.57;;
50495;SDS011;38806;51.554;5.704;2022-11-20T01:15:27;19.83;;;12.27;;
50495;SDS011;38806;51.554;5.704;2022-11-20T01:17:28;22.20;;;12.20;;
50495;SDS011;38806;51.554;5.704;2022-11-20T01:19:28;27.15;;;13.15;;
50495;SDS011;38806;51.554;5.704;2022-11-20T01:21:32;24.02;;;12.93;;
50495;SDS011;38806;51.554;5.704;2022-11-20T01:23:36;22.05;;;13.25;;
50495;SDS011;38806;51.554;5.704;2022-11-20T01:25:37;28.50;;;13.05;;
50495;SDS011;38806;51.554;5.704;2022-11-20T01:27:37;23.45;;;12.85;;
50495;SDS011;38806;51.554;5.704;2022-11-20T01:29:37;27.20;;;14.93;;
50495;SDS011;38806;51.554;5.704;2022-11-20T01:31:37;25.23;;;12.38;;
50495;SDS011;38806;51.554;5.704;2022-11-20T01:33:37;28.40;;;14.68;;
50495;SDS011;38806;51.554;5.704;2022-11-20T01:35:37;25.00;;;14.43;;
50495;SDS011;38806;51.554;5.704;2022-11-20T01:37:38;23.38;;;14.60;;
50495;SDS011;38806;51.554;5.704;2022-11-20T01:39:38;22.98;;;13.10;;
50495;SDS011;38806;51.554;5.704;2022-11-20T01:41:38;23.23;;;13.27;;
50495;SDS011;38806;51.554;5.704;2022-11-20T01:43:57;22.10;;;12.53;;
50495;SDS011;38806;51.554;5.704;2022-11-20T01:45:59;25.58;;;13.82;;
50495;SDS011;38806;51.554;5.704;2022-11-20T01:47:59;19.13;;;10.38;;
50495;SDS011;38806;51.554;5.704;2022-11-20T01:52:01;23.38;;;12.45;;
50495;SDS011;38806;51.554;5.704;2022-11-20T01:54:04;19.98;;;13.73;;
50495;SDS011;38806;51.554;5.704;2022-11-20T01:56:05;19.15;;;11.60;;
50495;SDS011;38806;51.554;5.704;2022-11-20T01:58:08;22.35;;;12.70;;
50495;SDS011;38806;51.554;5.704;2022-11-20T02:00:10;24.60;;;12.87;;
50495;SDS011;38806;51.554;5.704;2022-11-20T02:02:10;28.92;;;14.73;;
50495;SDS011;38806;51.554;5.704;2022-11-20T02:04:10;26.67;;;13.47;;
50495;SDS011;38806;51.554;5.704;2022-11-20T02:06:12;26.57;;;14.17;;
50495;SDS011;38806;51.554;5.704;2022-11-20T02:08:14;27.50;;;13.80;;
50495;SDS011;38806;51.554;5.704;2022-11-20T02:10:15;23.77;;;13.55;;
50495;SDS011;38806;51.554;5.704;2022-11-20T02:12:16;26.60;;;14.30;;
50495;SDS011;38806;51.554;5.704;2022-11-20T02:14:34;23.07;;;14.83;;
50495;SDS011;38806;51.554;5.704;2022-11-20T02:16:37;28.93;;;14.40;;
50495;SDS011;38806;51.554;5.704;2022-11-20T02:18:39;24.20;;;14.23;;
50495;SDS011;38806;51.554;5.704;2022-11-20T02:20:40;22.90;;;14.47;;
50495;SDS011;38806;51.554;5.704;2022-11-20T02:25:02;29.47;;;15.80;;
50495;SDS011;38806;51.554;5.704;2022-11-20T02:27:10;25.03;;;15.93;;
50495;SDS011;38806;51.554;5.704;2022-11-20T02:29:11;27.60;;;13.15;;
50495;SDS011;38806;51.554;5.704;2022-11-20T02:31:11;24.88;;;13.68;;
50495;SDS011;38806;51.554;5.704;2022-11-20T02:33:12;26.43;;;12.80;;
50495;SDS011;38806;51.554;5.704;2022-11-20T02:37:18;25.97;;;15.13;;
50495;SDS011;38806;51.554;5.704;2022-11-20T02:39:19;24.57;;;14.53;;
50495;SDS011;38806;51.554;5.704;2022-11-20T02:41:20;26.97;;;14.20;;
50495;SDS011;38806;51.554;5.704;2022-11-20T02:43:20;23.85;;;13.35;;
50495;SDS011;38806;51.554;5.704;2022-11-20T02:45:21;30.87;;;18.03;;
50495;SDS011;38806;51.554;5.704;2022-11-20T02:47:22;30.00;;;17.40;;
50495;SDS011;38806;51.554;5.704;2022-11-20T02:49:22;29.33;;;14.80;;
50495;SDS011;38806;51.554;5.704;2022-11-20T02:51:23;29.37;;;15.53;;
50495;SDS011;38806;51.554;5.704;2022-11-20T02:53:23;24.33;;;14.23;;
50495;SDS011;38806;51.554;5.704;2022-11-20T02:55:23;31.33;;;16.40;;
50495;SDS011;38806;51.554;5.704;2022-11-20T02:57:24;31.67;;;15.60;;
50495;SDS011;38806;51.554;5.704;2022-11-20T02:59:24;26.63;;;17.67;;
50495;SDS011;38806;51.554;5.704;2022-11-20T03:01:24;25.23;;;13.60;;
50495;SDS011;38806;51.554;5.704;2022-11-20T03:03:24;29.00;;;16.80;;
50495;SDS011;38806;51.554;5.704;2022-11-20T03:05:24;36.43;;;17.93;;
50495;SDS011;38806;51.554;5.704;2022-11-20T03:07:25;37.73;;;17.23;;
50495;SDS011;38806;51.554;5.704;2022-11-20T03:09:25;24.30;;;15.03;;
50495;SDS011;38806;51.554;5.704;2022-11-20T03:11:25;27.40;;;13.87;;
50495;SDS011;38806;51.554;5.704;2022-11-20T03:13:25;28.20;;;13.33;;
50495;SDS011;38806;51.554;5.704;2022-11-20T03:15:25;25.00;;;15.87;;
50495;SDS011;38806;51.554;5.704;2022-11-20T03:17:26;31.00;;;16.33;;
50495;SDS011;38806;51.554;5.704;2022-11-20T03:19:26;28.83;;;14.50;;
50495;SDS011;38806;51.554;5.704;2022-11-20T03:21:26;30.37;;;14.03;;
50495;SDS011;38806;51.554;5.704;2022-11-20T03:23:28;23.63;;;14.30;;
50495;SDS011;38806;51.554;5.704;2022-11-20T03:25:28;26.47;;;13.47;;
50495;SDS011;38806;51.554;5.704;2022-11-20T03:27:31;37.50;;;15.93;;
50495;SDS011;38806;51.554;5.704;2022-11-20T03:29:31;25.60;;;14.90;;
50495;SDS011;38806;51.554;5.704;2022-11-20T03:31:36;29.33;;;14.00;;
50495;SDS011;38806;51.554;5.704;2022-11-20T03:33:36;25.70;;;13.60;;
50495;SDS011;38806;51.554;5.704;2022-11-20T03:35:36;29.00;;;16.67;;
50495;SDS011;38806;51.554;5.704;2022-11-20T03:37:36;22.77;;;12.97;;
50495;SDS011;38806;51.554;5.704;2022-11-20T03:39:37;24.83;;;14.10;;
50495;SDS011;38806;51.554;5.704;2022-11-20T03:41:38;23.60;;;13.33;;
50495;SDS011;38806;51.554;5.704;2022-11-20T03:43:38;26.10;;;14.43;;
50495;SDS011;38806;51.554;5.704;2022-11-20T03:45:39;25.53;;;12.77;;
50495;SDS011;38806;51.554;5.704;2022-11-20T03:47:39;32.70;;;17.40;;
50495;SDS011;38806;51.554;5.704;2022-11-20T03:49:39;24.80;;;13.60;;
50495;SDS011;38806;51.554;5.704;2022-11-20T03:51:39;26.63;;;16.07;;
50495;SDS011;38806;51.554;5.704;2022-11-20T03:53:40;26.37;;;13.63;;
50495;SDS011;38806;51.554;5.704;2022-11-20T03:55:40;23.67;;;14.03;;
50495;SDS011;38806;51.554;5.704;2022-11-20T03:57:40;22.27;;;12.83;;
50495;SDS011;38806;51.554;5.704;2022-11-20T03:59:40;23.33;;;14.10;;
50495;SDS011;38806;51.554;5.704;2022-11-20T04:01:40;26.83;;;16.20;;
50495;SDS011;38806;51.554;5.704;2022-11-20T04:03:41;30.30;;;16.17;;
50495;SDS011;38806;51.554;5.704;2022-11-20T04:05:42;26.30;;;15.70;;
50495;SDS011;38806;51.554;5.704;2022-11-20T04:07:42;29.00;;;14.90;;
50495;SDS011;38806;51.554;5.704;2022-11-20T04:09:42;22.83;;;15.43;;
50495;SDS011;38806;51.554;5.704;2022-11-20T04:11:42;26.10;;;14.57;;
50495;SDS011;38806;51.554;5.704;2022-11-20T04:13:45;32.30;;;17.70;;
50495;SDS011;38806;51.554;5.704;2022-11-20T04:15:45;38.17;;;17.25;;
50495;SDS011;38806;51.554;5.704;2022-11-20T04:17:45;29.97;;;17.03;;
50495;SDS011;38806;51.554;5.704;2022-11-20T04:19:45;27.53;;;15.83;;
50495;SDS011;38806;51.554;5.704;2022-11-20T04:21:46;30.17;;;16.23;;
50495;SDS011;38806;51.554;5.704;2022-11-20T04:23:46;27.73;;;16.40;;
50495;SDS011;38806;51.554;5.704;2022-11-20T04:25:46;25.17;;;15.37;;
50495;SDS011;38806;51.554;5.704;2022-11-20T04:27:46;24.23;;;12.47;;
50495;SDS011;38806;51.554;5.704;2022-11-20T04:29:46;25.00;;;14.20;;
50495;SDS011;38806;51.554;5.704;2022-11-20T04:31:47;26.50;;;16.50;;
50495;SDS011;38806;51.554;5.704;2022-11-20T04:33:47;26.63;;;15.10;;
50495;SDS011;38806;51.554;5.704;2022-11-20T04:35:47;29.27;;;15.73;;
50495;SDS011;38806;51.554;5.704;2022-11-20T04:37:47;28.47;;;16.07;;
50495;SDS011;38806;51.554;5.704;2022-11-20T04:39:50;27.17;;;14.13;;
50495;SDS011;38806;51.554;5.704;2022-11-20T04:41:50;24.83;;;15.10;;
50495;SDS011;38806;51.554;5.704;2022-11-20T04:44:14;23.70;;;12.90;;
50495;SDS011;38806;51.554;5.704;2022-11-20T04:46:14;26.83;;;13.37;;
50495;SDS011;38806;51.554;5.704;2022-11-20T04:48:15;22.92;;;14.45;;
50495;SDS011;38806;51.554;5.704;2022-11-20T04:50:15;24.53;;;13.37;;
50495;SDS011;38806;51.554;5.704;2022-11-20T04:52:15;26.33;;;14.13;;
50495;SDS011;38806;51.554;5.704;2022-11-20T04:54:15;26.10;;;15.82;;
50495;SDS011;38806;51.554;5.704;2022-11-20T04:56:16;22.90;;;13.27;;
50495;SDS011;38806;51.554;5.704;2022-11-20T04:58:16;29.33;;;14.27;;
50495;SDS011;38806;51.554;5.704;2022-11-20T05:00:16;22.43;;;13.43;;
50495;SDS011;38806;51.554;5.704;2022-11-20T05:02:17;28.50;;;15.87;;
50495;SDS011;38806;51.554;5.704;2022-11-20T05:04:17;20.23;;;12.37;;
50495;SDS011;38806;51.554;5.704;2022-11-20T05:06:18;33.23;;;17.30;;
50495;SDS011;38806;51.554;5.704;2022-11-20T05:08:19;29.00;;;14.10;;
50495;SDS011;38806;51.554;5.704;2022-11-20T05:10:19;25.73;;;13.53;;
50495;SDS011;38806;51.554;5.704;2022-11-20T05:12:19;25.03;;;15.97;;
50495;SDS011;38806;51.554;5.704;2022-11-20T05:14:19;19.60;;;13.43;;
50495;SDS011;38806;51.554;5.704;2022-11-20T05:16:20;25.70;;;14.63;;
50495;SDS011;38806;51.554;5.704;2022-11-20T05:18:20;27.10;;;16.27;;
50495;SDS011;38806;51.554;5.704;2022-11-20T05:20:20;26.93;;;16.33;;
50495;SDS011;38806;51.554;5.704;2022-11-20T05:22:21;31.80;;;17.17;;
50495;SDS011;38806;51.554;5.704;2022-11-20T05:24:21;30.77;;;15.10;;
50495;SDS011;38806;51.554;5.704;2022-11-20T05:26:22;27.60;;;14.70;;
50495;SDS011;38806;51.554;5.704;2022-11-20T05:28:22;25.23;;;14.97;;
50495;SDS011;38806;51.554;5.704;2022-11-20T05:30:23;27.73;;;14.87;;
50495;SDS011;38806;51.554;5.704;2022-11-20T05:32:23;26.97;;;15.20;;
50495;SDS011;38806;51.554;5.704;2022-11-20T05:34:25;29.80;;;16.33;;
50495;SDS011;38806;51.554;5.704;2022-11-20T05:36:25;27.87;;;15.40;;
50495;SDS011;38806;51.554;5.704;2022-11-20T05:38:25;28.20;;;16.77;;
50495;SDS011;38806;51.554;5.704;2022-11-20T05:40:25;25.30;;;13.10;;
50495;SDS011;38806;51.554;5.704;2022-11-20T05:42:25;32.25;;;14.13;;
50495;SDS011;38806;51.554;5.704;2022-11-20T05:44:32;29.40;;;15.30;;
50495;SDS011;38806;51.554;5.704;2022-11-20T05:46:32;28.70;;;13.07;;
50495;SDS011;38806;51.554;5.704;2022-11-20T05:48:32;28.67;;;14.70;;
50495;SDS011;38806;51.554;5.704;2022-11-20T05:50:33;30.85;;;16.90;;
50495;SDS011;38806;51.554;5.704;2022-11-20T05:52:33;27.80;;;15.73;;
50495;SDS011;38806;51.554;5.704;2022-11-20T05:54:33;29.10;;;17.60;;
50495;SDS011;38806;51.554;5.704;2022-11-20T05:56:33;35.85;;;17.80;;
50495;SDS011;38806;51.554;5.704;2022-11-20T05:58:34;25.45;;;14.00;;
50495;SDS011;38806;51.554;5.704;2022-11-20T06:00:35;29.63;;;16.23;;
50495;SDS011;38806;51.554;5.704;2022-11-20T06:02:35;31.67;;;17.25;;
50495;SDS011;38806;51.554;5.704;2022-11-20T06:04:35;28.98;;;16.58;;
50495;SDS011;38806;51.554;5.704;2022-11-20T06:06:36;36.83;;;18.85;;
50495;SDS011;38806;51.554;5.704;2022-11-20T06:08:36;35.75;;;18.52;;
50495;SDS011;38806;51.554;5.704;2022-11-20T06:10:36;30.85;;;16.75;;
50495;SDS011;38806;51.554;5.704;2022-11-20T06:12:36;24.10;;;15.48;;
50495;SDS011;38806;51.554;5.704;2022-11-20T06:14:36;37.88;;;21.70;;
50495;SDS011;38806;51.554;5.704;2022-11-20T06:16:37;38.45;;;18.58;;
50495;SDS011;38806;51.554;5.704;2022-11-20T06:18:37;33.88;;;19.92;;
50495;SDS011;38806;51.554;5.704;2022-11-20T06:20:37;31.80;;;19.25;;
50495;SDS011;38806;51.554;5.704;2022-11-20T06:22:37;37.70;;;19.88;;
50495;SDS011;38806;51.554;5.704;2022-11-20T06:24:38;28.05;;;18.52;;
50495;SDS011;38806;51.554;5.704;2022-11-20T06:26:38;32.28;;;17.08;;
50495;SDS011;38806;51.554;5.704;2022-11-20T06:28:38;35.22;;;20.15;;
50495;SDS011;38806;51.554;5.704;2022-11-20T06:30:44;32.40;;;19.73;;
50495;SDS011;38806;51.554;5.704;2022-11-20T06:32:44;28.17;;;18.00;;
50495;SDS011;38806;51.554;5.704;2022-11-20T06:34:44;31.35;;;19.25;;
50495;SDS011;38806;51.554;5.704;2022-11-20T06:36:44;33.67;;;19.77;;
50495;SDS011;38806;51.554;5.704;2022-11-20T06:38:44;34.17;;;19.95;;
50495;SDS011;38806;51.554;5.704;2022-11-20T06:40:45;31.30;;;17.42;;
50495;SDS011;38806;51.554;5.704;2022-11-20T06:42:45;35.35;;;19.67;;
50495;SDS011;38806;51.554;5.704;2022-11-20T06:44:45;29.48;;;18.58;;
50495;SDS011;38806;51.554;5.704;2022-11-20T06:46:45;34.88;;;19.17;;
50495;SDS011;38806;51.554;5.704;2022-11-20T06:48:46;31.00;;;17.58;;
50495;SDS011;38806;51.554;5.704;2022-11-20T06:50:46;31.45;;;18.23;;
50495;SDS011;38806;51.554;5.704;2022-11-20T06:52:46;34.33;;;18.17;;
50495;SDS011;38806;51.554;5.704;2022-11-20T06:54:47;34.95;;;19.10;;
50495;SDS011;38806;51.554;5.704;2022-11-20T06:56:47;32.25;;;19.13;;
50495;SDS011;38806;51.554;5.704;2022-11-20T06:58:48;31.63;;;19.00;;
50495;SDS011;38806;51.554;5.704;2022-11-20T07:00:51;36.65;;;19.15;;
50495;SDS011;38806;51.554;5.704;2022-11-20T07:02:54;36.30;;;21.10;;
50495;SDS011;38806;51.554;5.704;2022-11-20T07:04:57;38.03;;;22.15;;
50495;SDS011;38806;51.554;5.704;2022-11-20T07:06:57;34.67;;;19.58;;
50495;SDS011;38806;51.554;5.704;2022-11-20T07:08:58;39.03;;;22.52;;
50495;SDS011;38806;51.554;5.704;2022-11-20T07:11:00;39.33;;;20.45;;
50495;SDS011;38806;51.554;5.704;2022-11-20T07:13:02;34.85;;;20.42;;
50495;SDS011;38806;51.554;5.704;2022-11-20T07:15:03;36.35;;;22.08;;
50495;SDS011;38806;51.554;5.704;2022-11-20T07:17:04;38.72;;;24.30;;
50495;SDS011;38806;51.554;5.704;2022-11-20T07:19:04;35.22;;;21.25;;
50495;SDS011;38806;51.554;5.704;2022-11-20T07:21:06;37.80;;;20.75;;
50495;SDS011;38806;51.554;5.704;2022-11-20T07:23:07;36.17;;;21.08;;
50495;SDS011;38806;51.554;5.704;2022-11-20T07:25:07;37.83;;;20.73;;
50495;SDS011;38806;51.554;5.704;2022-11-20T07:27:08;32.13;;;17.83;;
50495;SDS011;38806;51.554;5.704;2022-11-20T07:29:08;33.72;;;21.30;;
50495;SDS011;38806;51.554;5.704;2022-11-20T07:31:08;38.72;;;21.55;;
50495;SDS011;38806;51.554;5.704;2022-11-20T07:33:08;33.80;;;21.73;;
50495;SDS011;38806;51.554;5.704;2022-11-20T07:35:09;35.22;;;21.55;;
50495;SDS011;38806;51.554;5.704;2022-11-20T07:37:09;40.42;;;21.92;;
50495;SDS011;38806;51.554;5.704;2022-11-20T07:39:09;36.45;;;21.05;;
50495;SDS011;38806;51.554;5.704;2022-11-20T07:41:09;36.40;;;20.40;;
50495;SDS011;38806;51.554;5.704;2022-11-20T07:43:09;36.05;;;21.13;;
50495;SDS011;38806;51.554;5.704;2022-11-20T07:45:10;42.40;;;22.50;;
50495;SDS011;38806;51.554;5.704;2022-11-20T07:47:10;34.97;;;21.70;;
50495;SDS011;38806;51.554;5.704;2022-11-20T07:49:10;31.20;;;20.63;;
50495;SDS011;38806;51.554;5.704;2022-11-20T07:51:10;37.22;;;21.10;;
50495;SDS011;38806;51.554;5.704;2022-11-20T07:53:10;37.83;;;21.88;;
50495;SDS011;38806;51.554;5.704;2022-11-20T07:55:12;29.40;;;19.70;;
50495;SDS011;38806;51.554;5.704;2022-11-20T07:57:12;43.72;;;26.50;;
50495;SDS011;38806;51.554;5.704;2022-11-20T07:59:12;34.47;;;20.13;;
50495;SDS011;38806;51.554;5.704;2022-11-20T08:01:13;34.03;;;20.17;;
50495;SDS011;38806;51.554;5.704;2022-11-20T08:03:13;39.70;;;21.30;;
50495;SDS011;38806;51.554;5.704;2022-11-20T08:05:13;34.40;;;18.40;;
50495;SDS011;38806;51.554;5.704;2022-11-20T08:07:13;27.58;;;18.77;;
50495;SDS011;38806;51.554;5.704;2022-11-20T08:09:14;36.75;;;19.67;;
50495;SDS011;38806;51.554;5.704;2022-11-20T08:11:14;32.47;;;21.05;;
50495;SDS011;38806;51.554;5.704;2022-11-20T08:13:33;36.83;;;20.48;;
50495;SDS011;38806;51.554;5.704;2022-11-20T08:15:52;37.10;;;20.45;;
50495;SDS011;38806;51.554;5.704;2022-11-20T08:17:58;34.03;;;20.27;;
50495;SDS011;38806;51.554;5.704;2022-11-20T08:19:58;35.97;;;20.77;;
50495;SDS011;38806;51.554;5.704;2022-11-20T08:21:58;39.45;;;23.00;;
50495;SDS011;38806;51.554;5.704;2022-11-20T08:23:59;39.38;;;22.80;;
50495;SDS011;38806;51.554;5.704;2022-11-20T08:25:59;35.60;;;23.20;;
50495;SDS011;38806;51.554;5.704;2022-11-20T08:28:00;38.70;;;22.95;;
50495;SDS011;38806;51.554;5.704;2022-11-20T08:30:00;35.92;;;21.55;;
50495;SDS011;38806;51.554;5.704;2022-11-20T08:32:00;33.20;;;20.52;;
50495;SDS011;38806;51.554;5.704;2022-11-20T08:34:00;37.53;;;21.33;;
50495;SDS011;38806;51.554;5.704;2022-11-20T08:36:02;38.08;;;23.38;;
50495;SDS011;38806;51.554;5.704;2022-11-20T08:38:02;36.60;;;21.58;;
50495;SDS011;38806;51.554;5.704;2022-11-20T08:40:03;37.28;;;21.25;;
50495;SDS011;38806;51.554;5.704;2022-11-20T08:42:06;38.63;;;20.67;;
50495;SDS011;38806;51.554;5.704;2022-11-20T08:44:07;36.72;;;21.02;;
50495;SDS011;38806;51.554;5.704;2022-11-20T08:46:07;31.08;;;20.00;;
50495;SDS011;38806;51.554;5.704;2022-11-20T08:48:07;33.20;;;20.15;;
50495;SDS011;38806;51.554;5.704;2022-11-20T08:50:08;36.42;;;20.67;;
50495;SDS011;38806;51.554;5.704;2022-11-20T08:52:09;33.35;;;19.92;;
50495;SDS011;38806;51.554;5.704;2022-11-20T08:54:09;38.30;;;20.70;;
50495;SDS011;38806;51.554;5.704;2022-11-20T08:56:09;33.35;;;22.38;;
50495;SDS011;38806;51.554;5.704;2022-11-20T08:58:10;33.58;;;19.48;;
50495;SDS011;38806;51.554;5.704;2022-11-20T09:00:10;35.85;;;20.05;;
50495;SDS011;38806;51.554;5.704;2022-11-20T09:02:10;26.40;;;19.23;;
50495;SDS011;38806;51.554;5.704;2022-11-20T09:04:11;36.05;;;20.13;;
50495;SDS011;38806;51.554;5.704;2022-11-20T09:06:14;34.45;;;20.48;;
50495;SDS011;38806;51.554;5.704;2022-11-20T09:08:14;31.42;;;20.13;;
50495;SDS011;38806;51.554;5.704;2022-11-20T09:10:14;32.05;;;20.52;;
50495;SDS011;38806;51.554;5.704;2022-11-20T09:12:14;36.85;;;21.00;;
50495;SDS011;38806;51.554;5.704;2022-11-20T09:14:15;30.25;;;20.38;;
50495;SDS011;38806;51.554;5.704;2022-11-20T09:16:15;37.08;;;22.08;;
50495;SDS011;38806;51.554;5.704;2022-11-20T09:18:15;29.55;;;20.88;;
50495;SDS011;38806;51.554;5.704;2022-11-20T09:20:15;37.42;;;22.15;;
50495;SDS011;38806;51.554;5.704;2022-11-20T09:22:16;35.95;;;21.95;;
50495;SDS011;38806;51.554;5.704;2022-11-20T09:24:16;37.50;;;21.45;;
50495;SDS011;38806;51.554;5.704;2022-11-20T09:26:16;36.97;;;22.38;;
50495;SDS011;38806;51.554;5.704;2022-11-20T09:28:16;33.95;;;22.42;;
50495;SDS011;38806;51.554;5.704;2022-11-20T09:30:18;35.85;;;20.95;;
50495;SDS011;38806;51.554;5.704;2022-11-20T09:32:18;40.65;;;24.17;;
50495;SDS011;38806;51.554;5.704;2022-11-20T09:34:18;38.67;;;21.77;;
50495;SDS011;38806;51.554;5.704;2022-11-20T09:36:18;31.98;;;20.63;;
50495;SDS011;38806;51.554;5.704;2022-11-20T09:38:19;31.15;;;19.33;;
50495;SDS011;38806;51.554;5.704;2022-11-20T09:40:20;33.53;;;20.45;;
50495;SDS011;38806;51.554;5.704;2022-11-20T09:42:41;36.47;;;20.20;;
50495;SDS011;38806;51.554;5.704;2022-11-20T09:44:56;33.47;;;19.08;;
50495;SDS011;38806;51.554;5.704;2022-11-20T09:49:13;34.08;;;21.80;;
50495;SDS011;38806;51.554;5.704;2022-11-20T09:55:45;35.30;;;20.98;;
50495;SDS011;38806;51.554;5.704;2022-11-20T09:57:46;35.28;;;22.15;;
50495;SDS011;38806;51.554;5.704;2022-11-20T09:59:49;37.67;;;21.88;;
50495;SDS011;38806;51.554;5.704;2022-11-20T10:01:50;37.17;;;22.85;;
50495;SDS011;38806;51.554;5.704;2022-11-20T10:03:54;35.78;;;20.05;;
50495;SDS011;38806;51.554;5.704;2022-11-20T10:05:55;39.03;;;22.67;;
50495;SDS011;38806;51.554;5.704;2022-11-20T10:19:27;34.55;;;20.27;;
50495;SDS011;38806;51.554;5.704;2022-11-20T10:23:38;39.13;;;24.10;;
50495;SDS011;38806;51.554;5.704;2022-11-20T10:25:43;41.40;;;23.88;;
50495;SDS011;38806;51.554;5.704;2022-11-20T10:32:10;36.50;;;22.98;;
50495;SDS011;38806;51.554;5.704;2022-11-20T10:34:28;47.05;;;22.55;;
50495;SDS011;38806;51.554;5.704;2022-11-20T10:36:30;39.95;;;24.45;;
50495;SDS011;38806;51.554;5.704;2022-11-20T10:38:34;41.42;;;22.10;;
50495;SDS011;38806;51.554;5.704;2022-11-20T10:40:43;43.30;;;26.40;;
50495;SDS011;38806;51.554;5.704;2022-11-20T10:42:45;50.53;;;27.55;;
50495;SDS011;38806;51.554;5.704;2022-11-20T10:44:51;45.55;;;27.98;;
50495;SDS011;38806;51.554;5.704;2022-11-20T10:47:03;46.95;;;25.77;;
50495;SDS011;38806;51.554;5.704;2022-11-20T10:49:04;46.42;;;23.52;;
50495;SDS011;38806;51.554;5.704;2022-11-20T10:51:13;51.75;;;28.90;;
50495;SDS011;38806;51.554;5.704;2022-11-20T10:59:51;49.13;;;28.50;;
50495;SDS011;38806;51.554;5.704;2022-11-20T11:01:54;48.25;;;30.05;;
50495;SDS011;38806;51.554;5.704;2022-11-20T11:03:55;44.58;;;30.25;;
50495;SDS011;38806;51.554;5.704;2022-11-20T11:06:08;42.60;;;25.60;;
50495;SDS011;38806;51.554;5.704;2022-11-20T11:08:12;47.17;;;27.45;;
50495;SDS011;38806;51.554;5.704;2022-11-20T11:12:13;50.53;;;27.92;;
50495;SDS011;38806;51.554;5.704;2022-11-20T11:14:14;48.53;;;27.90;;
50495;SDS011;38806;51.554;5.704;2022-11-20T11:16:20;51.40;;;25.77;;
50495;SDS011;38806;51.554;5.704;2022-11-20T11:18:24;54.97;;;27.63;;
50495;SDS011;38806;51.554;5.704;2022-11-20T11:20:25;55.53;;;27.33;;
50495;SDS011;38806;51.554;5.704;2022-11-20T11:22:25;50.90;;;26.27;;
50495;SDS011;38806;51.554;5.704;2022-11-20T11:24:29;58.30;;;27.63;;
50495;SDS011;38806;51.554;5.704;2022-11-20T11:26:29;52.80;;;30.02;;
50495;SDS011;38806;51.554;5.704;2022-11-20T11:28:29;50.78;;;29.02;;
50495;SDS011;38806;51.554;5.704;2022-11-20T11:30:39;50.75;;;29.00;;
50495;SDS011;38806;51.554;5.704;2022-11-20T11:32:40;53.53;;;25.63;;
50495;SDS011;38806;51.554;5.704;2022-11-20T11:34:40;52.08;;;28.73;;
50495;SDS011;38806;51.554;5.704;2022-11-20T11:36:41;49.05;;;27.42;;
50495;SDS011;38806;51.554;5.704;2022-11-20T11:38:42;59.03;;;27.15;;
50495;SDS011;38806;51.554;5.704;2022-11-20T11:40:43;55.95;;;28.60;;
50495;SDS011;38806;51.554;5.704;2022-11-20T11:42:44;56.92;;;29.90;;
50495;SDS011;38806;51.554;5.704;2022-11-20T11:44:47;54.28;;;28.90;;
50495;SDS011;38806;51.554;5.704;2022-11-20T11:47:09;62.08;;;30.20;;
50495;SDS011;38806;51.554;5.704;2022-11-20T11:49:15;57.10;;;29.08;;
50495;SDS011;38806;51.554;5.704;2022-11-20T11:51:19;60.03;;;30.20;;
50495;SDS011;38806;51.554;5.704;2022-11-20T11:53:20;62.45;;;35.42;;
50495;SDS011;38806;51.554;5.704;2022-11-20T11:59:49;58.15;;;33.20;;
50495;SDS011;38806;51.554;5.704;2022-11-20T12:01:53;61.90;;;33.65;;
50495;SDS011;38806;51.554;5.704;2022-11-20T12:03:57;54.45;;;29.17;;
50495;SDS011;38806;51.554;5.704;2022-11-20T12:06:03;59.15;;;28.95;;
50495;SDS011;38806;51.554;5.704;2022-11-20T12:08:09;57.75;;;28.42;;
50495;SDS011;38806;51.554;5.704;2022-11-20T12:10:22;58.95;;;30.00;;
50495;SDS011;38806;51.554;5.704;2022-11-20T12:12:30;55.72;;;29.08;;
50495;SDS011;38806;51.554;5.704;2022-11-20T12:14:39;49.75;;;26.70;;
50495;SDS011;38806;51.554;5.704;2022-11-20T12:16:40;52.45;;;26.33;;
50495;SDS011;38806;51.554;5.704;2022-11-20T12:18:41;57.22;;;30.65;;
50495;SDS011;38806;51.554;5.704;2022-11-20T12:20:44;58.25;;;30.50;;
50495;SDS011;38806;51.554;5.704;2022-11-20T12:24:55;60.60;;;32.50;;
50495;SDS011;38806;51.554;5.704;2022-11-20T12:27:16;56.35;;;28.38;;
50495;SDS011;38806;51.554;5.704;2022-11-20T12:33:38;55.25;;;29.15;;
50495;SDS011;38806;51.554;5.704;2022-11-20T12:39:50;49.95;;;28.40;;
50495;SDS011;38806;51.554;5.704;2022-11-20T12:47:19;54.70;;;31.40;;
50495;SDS011;38806;51.554;5.704;2022-11-20T12:53:35;58.47;;;29.48;;
50495;SDS011;38806;51.554;5.704;2022-11-20T12:57:57;56.05;;;31.45;;